Flight Track Log - Related Links

Times and Time Zones

All times are in EDT time to prevent confusion due to time zone crossing. See the SIL3632 flight status page for this flight to view local times or setup timezone preferences in your user account.

Time Position Orientation Groundspeed Altitude Reporting Facility
EDT Latitude Longitude Course Direction KTS MPH feet Rate Location/Type
Mon 05:32:45 PM 33.6333 -84.4500 180° South 174 200 2,200  Level Atlanta TRACON
Mon 05:33:45 PM 33.5833 -84.4500 180° South 172 198 3,800 900 Climbing Atlanta TRACON
Mon 05:34:45 PM 33.5333 -84.4500 180° South 185 213 4,000 100 Climbing Atlanta TRACON
Mon 05:35:45 PM 33.4833 -84.4833 209° Southwest 197 227 4,000  Level Atlanta TRACON
Mon 05:36:45 PM 33.4667 -84.5333 248° West 187 215 4,000  Level Atlanta TRACON
Mon 05:37:39 PM 33.4500 -84.5833 248° West 184 212 4,000  Level Atlanta TRACON
Mon 05:38:39 PM 33.4500 -84.6500 270° West 185 213 4,000  Level Atlanta TRACON
Mon 05:39:39 PM 33.4167 -84.6500 180° South 187 215 4,000 238 Level Atlanta TRACON
Mon 05:40:45 PM 33.3833 -84.6167 140° Southeast 146 168 4,500 500 Climbing Atlanta TRACON
Mon 05:41:39 PM 33.3500 -84.5833 140° Southeast 156 180 5,000 263 Climbing Atlanta TRACON
Mon 05:42:39 PM 33.3333 -84.5333 112° Southeast 180 207 5,000  Level Atlanta TRACON
Mon 05:43:39 PM 33.2833 -84.4833 140° Southeast 199 229 5,000  Level Atlanta TRACON
Mon 05:44:33 PM 33.2500 -84.4333 129° Southeast 197 227 5,000  Level Atlanta TRACON
Mon 05:45:33 PM 33.2167 -84.4000 140° Southeast 186 214 5,000  Level Atlanta TRACON
Mon 05:46:33 PM 33.2000 -84.3500 112° Southeast 179 206 5,000  Level Atlanta TRACON
Mon 05:47:33 PM 33.1667 -84.3000 129° Southeast 176 203 5,000  Level Atlanta TRACON
Mon 05:48:39 PM 33.1333 -84.2500 129° Southeast 162 186 5,000  Level Atlanta TRACON
Mon 05:49:39 PM 33.1000 -84.2167 140° Southeast 162 186 5,000  Level Atlanta TRACON
Mon 05:50:39 PM 33.0667 -84.1667 128° Southeast 160 184 5,000  Level Atlanta TRACON
Mon 05:51:39 PM 33.0333 -84.1333 140° Southeast 155 178 5,000 -100 Level Atlanta TRACON
Mon 05:52:39 PM 33.0000 -84.1167 157° South 164 189 4,800 -1,050 Descending Atlanta TRACON
Mon 05:53:39 PM 32.9500 -84.0833 151° Southeast 230 265 2,900 -1,200 Descending Atlanta TRACON
Mon 05:54:39 PM 32.8833 -84.0500 157° South 211 243 2,400 -250 Descending Atlanta TRACON
Mon 05:55:39 PM 32.8333 -84.0333 164° South 191 220 2,400  Level Atlanta TRACON
Mon 05:56:39 PM 32.7833 -84.0000 151° Southeast 189 217 2,400  Level Atlanta TRACON
Mon 05:57:39 PM 32.7500 -83.9833 157° South 184 212 2,400 -50 Level Atlanta TRACON
Mon 05:58:39 PM 32.7000 -83.9500 151° Southeast 186 214 2,300 -200 Descending Atlanta TRACON
Mon 05:59:39 PM 32.6500 -83.9167 151° Southeast 202 232 2,000 -150 Descending Atlanta TRACON
Mon 06:00:39 PM 32.6000 -83.8833 151° Southeast 190 219 2,000  Level Atlanta TRACON
Mon 06:01:33 PM 32.5833 -83.8500 121° Southeast 170 196 2,000  Level Atlanta TRACON
Mon 06:02:39 PM 32.5833 -83.8000 90° East 151 174 2,000  Level Atlanta TRACON
Mon 06:03:39 PM 32.6167 -83.7500 52° Northeast 146 168 2,000 -150 Level Atlanta TRACON
Mon 06:04:39 PM 32.6333 -83.7167 59° Northeast 159 183 1,700 -550 Descending Atlanta TRACON
Mon 06:05:39 PM 32.6667 -83.6833 40° Northeast 144 166 900 -800 Descending Atlanta TRACON
Mon 06:07:00 PM 32.6833 -83.6333 90° East  Level FlightAware Approximate
Mon 06:14:00 PM 32.6928 -83.6492 90° East  Level Estimated
Mon 06:15:00 PM 32.6928 -83.6492 125° Southeast  Level Estimated

Login

Don't have an account? Register now (free) for customized features, flight alerts, and more!